createdAt,value
2019-03-23T00:00:39.674Z,19.73
2019-03-23T00:03:11.871Z,25.23
2019-03-23T00:05:43.923Z,20.80
2019-03-23T00:08:16.275Z,23.90
2019-03-23T00:10:48.886Z,19.80
2019-03-23T00:13:21.030Z,18.47
2019-03-23T00:15:53.829Z,16.80
2019-03-23T00:18:26.059Z,18.47
2019-03-23T00:20:58.111Z,21.03
2019-03-23T00:23:30.424Z,23.03
2019-03-23T00:26:02.694Z,21.63
2019-03-23T00:28:35.008Z,17.83
2019-03-23T00:31:07.077Z,22.17
2019-03-23T00:33:39.131Z,19.47
2019-03-23T00:36:11.556Z,20.80
2019-03-23T00:38:43.690Z,19.80
2019-03-23T00:41:15.860Z,18.50
2019-03-23T00:43:48.268Z,22.53
2019-03-23T00:46:20.400Z,17.63
2019-03-23T00:48:52.461Z,18.07
2019-03-23T00:51:25.030Z,17.97
2019-03-23T00:53:57.371Z,18.77
2019-03-23T00:56:29.786Z,18.20
2019-03-23T00:59:02.238Z,20.70
2019-03-23T01:01:34.445Z,21.43
2019-03-23T01:04:06.682Z,19.53
2019-03-23T01:06:38.822Z,19.77
2019-03-23T01:09:11.199Z,17.43
2019-03-23T01:11:43.264Z,19.60
2019-03-23T01:14:15.358Z,22.10
2019-03-23T01:16:47.838Z,20.27
2019-03-23T01:19:20.297Z,23.10
2019-03-23T01:21:52.279Z,23.67
2019-03-23T01:24:24.353Z,22.33
2019-03-23T01:26:56.500Z,20.07
2019-03-23T01:29:28.560Z,19.07
2019-03-23T01:32:00.616Z,18.83
2019-03-23T01:34:32.659Z,18.27
2019-03-23T01:37:05.063Z,21.83
2019-03-23T01:39:37.289Z,19.73
2019-03-23T01:42:09.766Z,22.30
2019-03-23T01:44:41.982Z,24.37
2019-03-23T01:47:14.038Z,23.27
2019-03-23T01:49:46.015Z,20.50
2019-03-23T01:52:18.144Z,20.43
2019-03-23T01:54:50.573Z,19.00
2019-03-23T01:57:22.553Z,18.63
2019-03-23T01:59:54.675Z,20.83
2019-03-23T02:02:27.213Z,20.13
2019-03-23T02:04:59.272Z,23.17
2019-03-23T02:07:31.248Z,23.27
2019-03-23T02:10:03.882Z,21.23
2019-03-23T02:12:36.412Z,25.97
2019-03-23T02:15:11.118Z,20.57
2019-03-23T02:17:43.329Z,19.53
2019-03-23T02:20:15.672Z,21.80
2019-03-23T02:22:47.979Z,19.27
2019-03-23T02:25:20.000Z,19.03
2019-03-23T02:27:52.057Z,20.47
2019-03-23T02:30:24.283Z,19.30
2019-03-23T02:32:57.014Z,19.17
2019-03-23T02:35:29.323Z,17.63
2019-03-23T02:38:01.646Z,21.17
2019-03-23T02:40:33.972Z,22.43
2019-03-23T02:43:06.041Z,22.37
2019-03-23T02:45:38.780Z,22.53
2019-03-23T02:48:11.573Z,21.33
2019-03-23T02:50:43.678Z,20.87
2019-03-23T02:53:16.024Z,23.00
2019-03-23T02:55:48.193Z,21.40
2019-03-23T02:58:20.149Z,19.90
2019-03-23T03:00:53.105Z,18.17
2019-03-23T03:03:25.434Z,22.40
2019-03-23T03:05:57.780Z,19.47
2019-03-23T03:08:29.866Z,21.20
2019-03-23T03:11:02.187Z,20.20
2019-03-23T03:13:34.158Z,19.70
2019-03-23T03:16:06.400Z,17.60
2019-03-23T03:18:38.463Z,16.40
2019-03-23T03:21:11.653Z,18.07
2019-03-23T03:23:44.070Z,23.67
2019-03-23T03:26:16.142Z,25.93
2019-03-23T03:28:48.303Z,24.57
2019-03-23T03:31:20.430Z,27.93
2019-03-23T03:33:52.433Z,33.30
2019-03-23T03:36:24.473Z,30.47
2019-03-23T03:38:56.550Z,30.40
2019-03-23T03:41:28.625Z,27.73
2019-03-23T03:44:00.844Z,29.33
2019-03-23T03:46:33.234Z,27.60
2019-03-23T03:49:12.361Z,27.10
2019-03-23T03:51:39.449Z,26.10
2019-03-23T03:54:20.715Z,27.33
2019-03-23T03:56:53.165Z,23.23
2019-03-23T03:59:25.470Z,29.40
2019-03-23T04:01:57.898Z,26.47
2019-03-23T04:04:30.411Z,25.07
2019-03-23T04:07:02.871Z,25.57
2019-03-23T04:09:35.006Z,24.60
2019-03-23T04:12:07.419Z,22.30
2019-03-23T04:14:39.407Z,23.23
2019-03-23T04:17:11.510Z,24.80
2019-03-23T04:19:43.912Z,23.07
2019-03-23T04:22:16.084Z,21.70
2019-03-23T04:24:48.224Z,26.10
2019-03-23T04:27:20.385Z,21.70
2019-03-23T04:29:52.360Z,21.67
2019-03-23T04:32:25.891Z,22.60
2019-03-23T04:34:57.944Z,19.13
2019-03-23T04:37:29.976Z,24.87
2019-03-23T04:40:02.478Z,20.60
2019-03-23T04:42:34.973Z,22.13
2019-03-23T04:45:09.017Z,23.07
2019-03-23T04:47:41.289Z,25.13
2019-03-23T04:50:13.962Z,26.60
2019-03-23T04:52:46.106Z,26.33
2019-03-23T04:55:18.646Z,24.17
2019-03-23T04:57:50.786Z,21.60
2019-03-23T05:00:23.199Z,21.87
2019-03-23T05:02:55.347Z,22.53
2019-03-23T05:05:27.474Z,25.57
2019-03-23T05:07:59.606Z,20.27
2019-03-23T05:10:31.689Z,25.60
2019-03-23T05:13:03.842Z,22.63
2019-03-23T05:15:35.932Z,23.13
2019-03-23T05:18:08.183Z,23.90
2019-03-23T05:20:40.433Z,25.47
2019-03-23T05:23:12.820Z,23.33
2019-03-23T05:25:45.337Z,26.80
2019-03-23T05:28:17.765Z,25.77
2019-03-23T05:30:50.036Z,27.83
2019-03-23T05:33:22.177Z,26.33
2019-03-23T05:35:54.244Z,27.37
2019-03-23T05:38:26.556Z,25.77
2019-03-23T05:40:58.555Z,23.77
2019-03-23T05:43:30.693Z,24.83
2019-03-23T05:46:03.531Z,22.97
2019-03-23T05:48:35.704Z,24.50
2019-03-23T05:51:08.092Z,26.87
2019-03-23T05:53:40.233Z,24.63
2019-03-23T05:56:12.218Z,23.17
2019-03-23T05:58:44.588Z,21.43
2019-03-23T06:01:16.668Z,23.93
2019-03-23T06:03:49.820Z,25.00
2019-03-23T06:06:21.974Z,23.37
2019-03-23T06:08:55.518Z,25.43
2019-03-23T06:11:27.731Z,25.17
2019-03-23T06:14:00.200Z,22.17
2019-03-23T06:16:32.563Z,20.60
2019-03-23T06:19:04.890Z,21.87
2019-03-23T06:21:37.040Z,20.97
2019-03-23T06:24:09.338Z,20.17
2019-03-23T06:26:41.399Z,24.27
2019-03-23T06:29:13.805Z,21.60
2019-03-23T06:31:45.808Z,21.03
2019-03-23T06:34:18.436Z,22.87
2019-03-23T06:36:50.477Z,25.40
2019-03-23T06:39:22.843Z,24.70
2019-03-23T06:41:54.930Z,23.97
2019-03-23T06:44:27.014Z,26.97
2019-03-23T06:46:59.156Z,23.17
2019-03-23T06:49:31.235Z,21.97
2019-03-23T06:52:03.829Z,23.83
2019-03-23T06:54:36.106Z,26.60
2019-03-23T06:57:08.275Z,26.43
2019-03-23T06:59:40.534Z,21.40
2019-03-23T07:02:13.776Z,21.33
2019-03-23T07:04:45.968Z,24.13
2019-03-23T07:07:18.084Z,24.77
2019-03-23T07:09:50.558Z,26.27
2019-03-23T07:12:22.639Z,28.60
2019-03-23T07:14:55.600Z,33.80
2019-03-23T07:17:27.675Z,33.93
2019-03-23T07:19:59.827Z,30.03
2019-03-23T07:22:32.379Z,30.93
2019-03-23T07:25:05.379Z,28.57
2019-03-23T07:27:37.780Z,31.13
2019-03-23T07:30:13.407Z,32.67
2019-03-23T07:32:45.725Z,30.60
2019-03-23T07:35:18.084Z,29.63
2019-03-23T07:37:50.309Z,31.93
2019-03-23T07:40:22.501Z,30.57
2019-03-23T07:42:54.624Z,25.40
2019-03-23T07:45:26.963Z,36.70
2019-03-23T07:47:59.492Z,33.20
2019-03-23T07:50:31.727Z,32.43
2019-03-23T07:53:03.948Z,33.77
2019-03-23T07:55:36.037Z,33.73
2019-03-23T07:58:08.313Z,35.33
2019-03-23T08:00:41.161Z,33.33
2019-03-23T08:03:14.039Z,33.60
2019-03-23T08:05:46.600Z,35.30
2019-03-23T08:08:18.969Z,35.27
2019-03-23T08:10:51.271Z,34.27
2019-03-23T08:13:23.494Z,36.00
2019-03-23T08:15:55.602Z,33.27
2019-03-23T08:18:27.743Z,35.47
2019-03-23T08:21:00.223Z,33.83
2019-03-23T08:23:32.317Z,37.07
2019-03-23T08:26:04.763Z,31.80
2019-03-23T08:28:36.945Z,34.23
2019-03-23T08:31:09.409Z,34.63
2019-03-23T08:33:41.742Z,36.93
2019-03-23T08:36:14.092Z,34.17
2019-03-23T08:38:46.511Z,34.50
2019-03-23T08:41:18.598Z,37.53
2019-03-23T08:43:50.773Z,33.53
2019-03-23T08:46:22.851Z,33.00
2019-03-23T08:48:54.938Z,32.27
2019-03-23T08:51:27.052Z,31.33
2019-03-23T08:53:59.074Z,35.37
2019-03-23T08:56:31.266Z,32.47
2019-03-23T08:59:03.672Z,33.57
2019-03-23T09:01:35.835Z,34.27
2019-03-23T09:04:07.987Z,36.00
2019-03-23T09:06:40.142Z,33.60
2019-03-23T09:09:12.288Z,34.80
2019-03-23T09:11:45.372Z,35.37
2019-03-23T09:14:17.436Z,36.97
2019-03-23T09:16:49.931Z,34.83
2019-03-23T09:19:22.181Z,33.20
2019-03-23T09:21:54.765Z,32.40
2019-03-23T09:24:27.098Z,34.27
2019-03-23T09:26:59.689Z,32.57
2019-03-23T09:29:32.876Z,34.93
2019-03-23T09:32:05.120Z,32.63
2019-03-23T09:34:37.251Z,34.17
2019-03-23T09:37:09.413Z,36.60
2019-03-23T09:39:41.904Z,35.20
2019-03-23T09:42:14.458Z,35.93
2019-03-23T09:44:46.684Z,40.83
2019-03-23T09:47:19.222Z,36.87
2019-03-23T09:49:51.455Z,40.33
2019-03-23T09:52:23.637Z,40.57
2019-03-23T09:55:02.207Z,38.07
2019-03-23T09:57:41.366Z,37.33
2019-03-23T10:00:14.126Z,37.70
2019-03-23T10:02:46.602Z,35.87
2019-03-23T10:05:21.354Z,34.97
2019-03-23T10:07:53.557Z,37.90
2019-03-23T10:10:25.728Z,39.07
2019-03-23T10:12:58.204Z,35.97
2019-03-23T10:15:30.268Z,37.58
2019-03-23T10:18:02.747Z,38.38
2019-03-23T10:20:35.933Z,39.95
2019-03-23T10:23:08.472Z,36.00
2019-03-23T10:25:41.140Z,39.65
2019-03-23T10:28:13.410Z,37.27
2019-03-23T10:30:45.946Z,43.75
2019-03-23T10:33:18.041Z,44.40
2019-03-23T10:35:50.279Z,41.02
2019-03-23T10:38:22.572Z,39.17
2019-03-23T10:40:54.814Z,42.60
2019-03-23T10:43:26.879Z,41.75
2019-03-23T10:45:59.061Z,39.90
2019-03-23T10:48:31.222Z,40.52
2019-03-23T10:51:03.445Z,38.05
2019-03-23T10:53:36.672Z,42.67
2019-03-23T10:56:09.133Z,43.80
2019-03-23T10:58:41.334Z,41.45
2019-03-23T11:01:13.546Z,43.90
2019-03-23T11:03:45.783Z,42.48
2019-03-23T11:06:18.007Z,42.98
2019-03-23T11:08:50.312Z,38.98
2019-03-23T11:11:22.635Z,43.48
2019-03-23T11:13:54.795Z,41.85
2019-03-23T11:16:27.300Z,39.25
2019-03-23T11:18:59.599Z,40.63
2019-03-23T11:21:31.731Z,43.38
2019-03-23T11:24:03.933Z,44.85
2019-03-23T11:26:36.078Z,43.85
2019-03-23T11:29:08.689Z,49.80
2019-03-23T11:31:40.919Z,42.08
2019-03-23T11:34:17.714Z,41.23
2019-03-23T11:36:47.302Z,40.20
2019-03-23T11:39:19.482Z,44.90
2019-03-23T11:41:51.986Z,41.00
2019-03-23T11:44:24.307Z,42.08
2019-03-23T11:46:56.495Z,44.48
2019-03-23T11:49:29.020Z,44.35
2019-03-23T11:52:02.257Z,41.98
2019-03-23T11:54:35.151Z,45.43
2019-03-23T11:57:07.793Z,45.33
2019-03-23T11:59:40.356Z,48.00
2019-03-23T12:02:13.840Z,42.45
2019-03-23T12:04:46.051Z,39.40
2019-03-23T12:07:18.603Z,45.88
2019-03-23T12:09:51.116Z,45.78
2019-03-23T12:12:23.323Z,48.15
2019-03-23T12:14:55.436Z,44.35
2019-03-23T12:17:27.984Z,42.67
2019-03-23T12:20:00.182Z,45.65
2019-03-23T12:22:32.498Z,42.60
2019-03-23T12:25:05.172Z,43.13
2019-03-23T12:27:37.393Z,41.55
2019-03-23T12:30:12.008Z,42.05
2019-03-23T12:32:44.288Z,44.95
2019-03-23T12:35:16.631Z,41.00
2019-03-23T12:37:48.798Z,42.58
2019-03-23T12:40:21.114Z,42.93
2019-03-23T12:42:53.589Z,45.33
2019-03-23T12:45:25.991Z,42.58
2019-03-23T12:47:58.792Z,42.15
2019-03-23T12:50:31.218Z,44.80
2019-03-23T12:53:03.581Z,46.20
2019-03-23T12:55:35.660Z,41.53
2019-03-23T12:58:07.904Z,46.25
2019-03-23T13:00:40.074Z,41.80
2019-03-23T13:03:12.341Z,44.55
2019-03-23T13:05:44.496Z,49.23
2019-03-23T13:08:16.736Z,43.92
2019-03-23T13:10:48.962Z,41.23
2019-03-23T13:13:21.167Z,42.43
2019-03-23T13:15:53.461Z,42.27
2019-03-23T13:18:27.355Z,42.95
2019-03-23T13:21:03.021Z,42.30
2019-03-23T13:23:34.826Z,45.80
2019-03-23T13:26:07.269Z,40.08
2019-03-23T13:28:39.428Z,46.53
2019-03-23T13:31:11.724Z,43.50
2019-03-23T13:33:43.955Z,44.70
2019-03-23T13:36:16.150Z,45.52
2019-03-23T13:38:48.325Z,40.63
2019-03-23T13:41:20.536Z,39.45
2019-03-23T13:43:52.739Z,41.90
2019-03-23T13:46:24.794Z,40.08
2019-03-23T13:48:56.874Z,42.65
2019-03-23T13:51:29.034Z,44.90
2019-03-23T13:54:01.310Z,43.28
2019-03-23T13:56:34.416Z,45.95
2019-03-23T13:59:06.516Z,42.90
2019-03-23T14:01:38.712Z,43.87
2019-03-23T14:04:10.876Z,42.48
2019-03-23T14:06:44.272Z,41.23
2019-03-23T14:09:16.827Z,45.17
2019-03-23T14:11:54.971Z,41.80
2019-03-23T14:14:23.291Z,44.90
2019-03-23T14:16:55.377Z,41.48
2019-03-23T14:19:27.771Z,41.73
2019-03-23T14:22:00.639Z,45.60
2019-03-23T14:24:32.759Z,44.93
2019-03-23T14:27:04.919Z,43.95
2019-03-23T14:29:36.998Z,42.60
2019-03-23T14:32:09.255Z,42.88
2019-03-23T14:34:41.411Z,42.78
2019-03-23T14:37:13.893Z,42.95
2019-03-23T14:39:45.907Z,42.05
2019-03-23T14:42:18.589Z,41.68
2019-03-23T14:44:50.813Z,42.43
2019-03-23T14:47:23.758Z,38.58
2019-03-23T14:49:55.975Z,40.75
2019-03-23T14:52:28.519Z,38.20
2019-03-23T14:55:00.755Z,38.17
2019-03-23T14:57:32.914Z,38.42
2019-03-23T15:00:06.072Z,38.25
2019-03-23T15:02:38.185Z,40.80
2019-03-23T15:05:10.496Z,42.38
2019-03-23T15:07:42.654Z,37.60
2019-03-23T15:10:15.383Z,39.10
2019-03-23T15:12:47.868Z,39.88
2019-03-23T15:15:20.180Z,41.18
2019-03-23T15:17:52.492Z,38.78
2019-03-23T15:20:25.079Z,40.65
2019-03-23T15:22:59.092Z,38.08
2019-03-23T15:25:32.253Z,45.15
2019-03-23T15:28:04.498Z,42.93
2019-03-23T15:30:36.768Z,44.20
2019-03-23T15:33:08.914Z,47.80
2019-03-23T15:35:41.282Z,40.78
2019-03-23T15:38:13.464Z,46.83
2019-03-23T15:40:45.612Z,48.38
2019-03-23T15:43:17.749Z,40.03
2019-03-23T15:45:49.895Z,39.73
2019-03-23T15:48:22.155Z,37.13
2019-03-23T15:50:54.795Z,42.17
2019-03-23T15:53:26.975Z,43.42
2019-03-23T15:55:59.055Z,43.28
2019-03-23T15:58:31.242Z,38.33
2019-03-23T16:01:03.761Z,38.55
2019-03-23T16:03:35.763Z,35.90
2019-03-23T16:06:09.403Z,36.88
2019-03-23T16:08:41.500Z,39.70
2019-03-23T16:11:13.577Z,34.88
2019-03-23T16:13:46.069Z,33.35
2019-03-23T16:16:18.423Z,40.30
2019-03-23T16:18:50.422Z,37.87
2019-03-23T16:21:22.657Z,38.42
2019-03-23T16:23:54.655Z,36.68
2019-03-23T16:26:27.100Z,35.40
2019-03-23T16:28:59.161Z,37.40
2019-03-23T16:31:31.486Z,40.88
2019-03-23T16:34:03.687Z,37.15
2019-03-23T16:36:35.847Z,36.93
2019-03-23T16:39:09.081Z,46.65
2019-03-23T16:41:41.206Z,45.63
2019-03-23T16:44:14.201Z,39.47
2019-03-23T16:46:46.348Z,44.50
2019-03-23T16:49:18.548Z,40.80
2019-03-23T16:51:50.781Z,46.85
2019-03-23T16:54:23.018Z,40.40
2019-03-23T16:56:55.351Z,33.17
2019-03-23T16:59:27.514Z,37.80
2019-03-23T17:02:00.020Z,36.20
2019-03-23T17:04:32.109Z,35.13
2019-03-23T17:07:04.281Z,33.40
2019-03-23T17:09:36.541Z,32.77
2019-03-23T17:12:08.836Z,39.50
2019-03-23T17:14:41.046Z,31.07
2019-03-23T17:17:13.217Z,30.93
2019-03-23T17:19:45.388Z,30.83
2019-03-23T17:22:17.498Z,32.10
2019-03-23T17:24:49.748Z,29.37
2019-03-23T17:27:22.375Z,27.40
2019-03-23T17:29:54.535Z,25.33
2019-03-23T17:32:26.573Z,24.67
2019-03-23T17:34:58.843Z,29.00
2019-03-23T17:37:30.929Z,28.97
2019-03-23T17:40:03.129Z,26.83
2019-03-23T17:42:36.039Z,27.77
2019-03-23T17:45:09.555Z,28.53
2019-03-23T17:47:42.278Z,30.87
2019-03-23T17:50:15.007Z,29.13
2019-03-23T17:52:47.756Z,29.73
2019-03-23T17:55:19.831Z,32.57
2019-03-23T17:57:52.056Z,33.73
2019-03-23T18:00:24.266Z,28.90
2019-03-23T18:02:56.638Z,34.63
2019-03-23T18:05:28.759Z,32.90
2019-03-23T18:08:01.052Z,32.77
2019-03-23T18:10:33.401Z,33.60
2019-03-23T18:13:15.911Z,34.33
2019-03-23T18:15:39.888Z,32.37
2019-03-23T18:18:12.049Z,34.63
2019-03-23T18:20:44.674Z,34.20
2019-03-23T18:23:17.178Z,32.07
2019-03-23T18:25:49.404Z,34.57
2019-03-23T18:28:21.499Z,33.40
2019-03-23T18:30:53.801Z,32.87
2019-03-23T18:33:26.361Z,33.30
2019-03-23T18:35:58.570Z,35.77
2019-03-23T18:38:31.210Z,37.03
2019-03-23T18:41:03.443Z,37.80
2019-03-23T18:43:35.792Z,39.13
2019-03-23T18:46:07.889Z,29.47
2019-03-23T18:48:40.212Z,29.50
2019-03-23T18:51:12.737Z,28.93
2019-03-23T18:53:44.904Z,32.27
2019-03-23T18:56:17.586Z,26.37
2019-03-23T18:58:50.129Z,34.73
2019-03-23T19:01:22.118Z,31.77
2019-03-23T19:03:54.207Z,31.13
2019-03-23T19:06:26.383Z,27.87
2019-03-23T19:08:58.974Z,26.97
2019-03-23T19:11:31.167Z,34.43
2019-03-23T19:14:03.263Z,30.87
2019-03-23T19:16:35.489Z,30.97
2019-03-23T19:19:07.665Z,34.10
2019-03-23T19:21:39.895Z,30.40
2019-03-23T19:24:11.972Z,33.83
2019-03-23T19:26:44.119Z,30.90
2019-03-23T19:29:16.589Z,32.63
2019-03-23T19:31:48.764Z,35.27
2019-03-23T19:34:20.918Z,34.77
2019-03-23T19:36:53.503Z,37.93
2019-03-23T19:39:25.899Z,42.27
2019-03-23T19:41:58.048Z,43.87
2019-03-23T19:44:30.103Z,40.83
2019-03-23T19:47:03.274Z,40.50
2019-03-23T19:49:35.495Z,36.30
2019-03-23T19:52:07.569Z,38.90
2019-03-23T19:54:39.814Z,34.33
2019-03-23T19:57:12.098Z,31.40
2019-03-23T19:59:44.533Z,30.37
2019-03-23T20:02:16.658Z,32.63
2019-03-23T20:04:49.010Z,32.73
2019-03-23T20:07:21.017Z,37.83
2019-03-23T20:09:53.100Z,36.70
2019-03-23T20:12:28.666Z,35.67
2019-03-23T20:15:01.214Z,46.50
2019-03-23T20:17:33.468Z,37.87
2019-03-23T20:20:06.699Z,40.80
2019-03-23T20:22:39.083Z,36.60
2019-03-23T20:25:12.727Z,43.93
2019-03-23T20:27:44.815Z,45.63
2019-03-23T20:30:18.274Z,43.63
2019-03-23T20:32:51.050Z,44.77
2019-03-23T20:35:23.291Z,43.10
2019-03-23T20:37:55.931Z,41.07
2019-03-23T20:40:28.446Z,44.37
2019-03-23T20:43:00.755Z,45.87
2019-03-23T20:45:33.337Z,49.27
2019-03-23T20:48:05.895Z,47.07
2019-03-23T20:50:38.757Z,43.43
2019-03-23T20:53:11.168Z,44.67
2019-03-23T20:55:43.338Z,42.60
2019-03-23T20:58:15.489Z,44.77
2019-03-23T21:00:47.699Z,41.50
2019-03-23T21:03:19.851Z,41.07
2019-03-23T21:05:52.203Z,44.20
2019-03-23T21:08:24.347Z,44.80
2019-03-23T21:10:56.884Z,42.17
2019-03-23T21:13:28.959Z,49.60
2019-03-23T21:16:01.254Z,44.87
2019-03-23T21:18:33.682Z,46.50
2019-03-23T21:21:08.473Z,42.23
2019-03-23T21:23:43.139Z,44.47
2019-03-23T21:26:15.830Z,44.80
2019-03-23T21:28:48.189Z,45.17
2019-03-23T21:31:22.639Z,41.87
2019-03-23T21:33:55.372Z,43.67
2019-03-23T21:36:27.809Z,49.93
2019-03-23T21:39:00.238Z,44.60
2019-03-23T21:41:34.569Z,41.83
2019-03-23T21:44:07.280Z,49.07
2019-03-23T21:46:39.601Z,40.63
2019-03-23T21:49:12.034Z,44.07
2019-03-23T21:51:44.711Z,40.07
2019-03-23T21:54:17.058Z,39.13
2019-03-23T21:56:50.277Z,45.17
2019-03-23T21:59:22.737Z,39.07
2019-03-23T22:01:55.106Z,39.57
2019-03-23T22:04:28.285Z,43.97
2019-03-23T22:07:00.788Z,38.87
2019-03-23T22:09:33.880Z,41.93
2019-03-23T22:12:06.162Z,41.03
2019-03-23T22:14:41.944Z,41.23
2019-03-23T22:17:13.383Z,40.80
2019-03-23T22:19:46.009Z,39.50
2019-03-23T22:22:18.550Z,41.97
2019-03-23T22:24:51.025Z,45.33
2019-03-23T22:27:23.570Z,39.87
2019-03-23T22:29:56.302Z,48.73
2019-03-23T22:32:28.647Z,49.17
2019-03-23T22:35:01.072Z,43.23
2019-03-23T22:37:33.491Z,43.90
2019-03-23T22:40:07.236Z,44.57
2019-03-23T22:42:39.792Z,40.40
2019-03-23T22:45:14.829Z,45.37
2019-03-23T22:47:47.993Z,41.73
2019-03-23T22:50:20.499Z,44.83
2019-03-23T22:52:53.279Z,45.30
2019-03-23T22:55:25.717Z,46.50
2019-03-23T22:57:57.799Z,57.73
2019-03-23T23:00:42.164Z,47.57
2019-03-23T23:03:15.465Z,35.77
2019-03-23T23:05:47.735Z,36.13
2019-03-23T23:08:19.936Z,37.17
2019-03-23T23:10:52.291Z,38.43
2019-03-23T23:13:24.287Z,38.77
2019-03-23T23:15:56.513Z,46.73
2019-03-23T23:18:28.800Z,41.47
2019-03-23T23:21:01.046Z,42.30
2019-03-23T23:23:34.473Z,41.57
2019-03-23T23:26:07.752Z,45.00
2019-03-23T23:28:39.823Z,42.60
2019-03-23T23:31:11.954Z,40.00
2019-03-23T23:33:44.099Z,52.77
2019-03-23T23:36:16.512Z,43.80
2019-03-23T23:38:48.656Z,40.30
2019-03-23T23:41:20.882Z,33.00
2019-03-23T23:43:54.087Z,32.40
2019-03-23T23:46:27.824Z,35.97
2019-03-23T23:48:59.992Z,37.00
2019-03-23T23:51:32.343Z,37.47
2019-03-23T23:54:04.644Z,39.03
2019-03-23T23:56:36.912Z,42.03
2019-03-23T23:59:08.994Z,34.87
